createdAt,value
2017-12-17T00:00:50.894Z,936.4
2017-12-17T00:01:54.727Z,935.5
2017-12-17T00:03:03.000Z,935.4
2017-12-17T00:04:06.919Z,935.5
2017-12-17T00:05:11.415Z,936.3
2017-12-17T00:06:14.906Z,935.5
2017-12-17T00:07:18.437Z,936.4
2017-12-17T00:08:21.798Z,935.5
2017-12-17T00:09:25.291Z,935.5
2017-12-17T00:10:28.588Z,935.6
2017-12-17T00:11:32.055Z,935.6
2017-12-17T00:12:36.200Z,935.5
2017-12-17T00:13:43.918Z,935.5
2017-12-17T00:14:47.841Z,936.4
2017-12-17T00:15:50.982Z,935.6
2017-12-17T00:16:55.383Z,935.6
2017-12-17T00:17:58.897Z,935.6
2017-12-17T00:19:03.277Z,935.7
2017-12-17T00:20:06.660Z,936.5
2017-12-17T00:21:09.845Z,935.6
2017-12-17T00:22:13.061Z,935.6
2017-12-17T00:23:16.792Z,934.7
2017-12-17T00:24:23.474Z,935.6
2017-12-17T00:25:27.556Z,935.6
2017-12-17T00:26:31.788Z,936.4
2017-12-17T00:27:35.120Z,935.7
2017-12-17T00:28:38.842Z,935.6
2017-12-17T00:29:43.081Z,935.7
2017-12-17T00:30:46.286Z,935.7
2017-12-17T00:31:50.553Z,936.5
2017-12-17T00:32:53.819Z,935.7
2017-12-17T00:33:58.236Z,935.6
2017-12-17T00:35:05.857Z,935.6
2017-12-17T00:36:09.353Z,935.6
2017-12-17T00:37:12.707Z,935.5
2017-12-17T00:38:16.087Z,935.6
2017-12-17T00:39:19.798Z,935.7
2017-12-17T00:40:23.235Z,935.6
2017-12-17T00:41:26.890Z,935.6
2017-12-17T00:42:30.231Z,935.6
2017-12-17T00:43:33.608Z,935.6
2017-12-17T00:44:37.221Z,935.5
2017-12-17T00:45:44.684Z,935.7
2017-12-17T00:46:48.123Z,935.6
2017-12-17T00:47:51.470Z,935.6
2017-12-17T00:48:54.843Z,935.6
2017-12-17T00:49:58.413Z,935.8
2017-12-17T00:51:02.007Z,935.6
2017-12-17T00:52:05.995Z,935.7
2017-12-17T00:53:09.387Z,935.7
2017-12-17T00:54:12.794Z,935.7
2017-12-17T00:55:16.409Z,935.7
2017-12-17T00:56:23.402Z,935.7
2017-12-17T00:57:28.980Z,935.7
2017-12-17T00:58:32.465Z,935.8
2017-12-17T00:59:35.936Z,935.7
2017-12-17T01:00:39.568Z,935.7
2017-12-17T01:01:42.829Z,936.6
2017-12-17T01:02:46.279Z,936.7
2017-12-17T01:03:49.656Z,935.7
2017-12-17T01:04:54.241Z,936.7
2017-12-17T01:05:57.782Z,935.8
2017-12-17T01:07:04.494Z,935.8
2017-12-17T01:08:07.980Z,935.8
2017-12-17T01:09:11.453Z,935.9
2017-12-17T01:10:14.842Z,935.8
2017-12-17T01:11:18.253Z,935.8
2017-12-17T01:12:21.714Z,935.8
2017-12-17T01:13:26.003Z,935.9
2017-12-17T01:14:29.465Z,935.9
2017-12-17T01:15:32.898Z,935.8
2017-12-17T01:16:36.596Z,935.8
2017-12-17T01:17:43.539Z,935.8
2017-12-17T01:18:46.959Z,936.7
2017-12-17T01:19:50.436Z,935.9
2017-12-17T01:20:53.950Z,936.8
2017-12-17T01:21:57.559Z,936
2017-12-17T01:23:01.047Z,936
2017-12-17T01:24:04.466Z,936
2017-12-17T01:25:08.446Z,936
2017-12-17T01:26:11.912Z,936
2017-12-17T01:27:18.318Z,936
2017-12-17T01:28:25.476Z,936
2017-12-17T01:29:28.866Z,935.9
2017-12-17T01:30:33.211Z,936
2017-12-17T01:31:36.686Z,936
2017-12-17T01:32:40.065Z,936.8
2017-12-17T01:33:43.396Z,936
2017-12-17T01:34:46.750Z,936
2017-12-17T01:35:50.124Z,936.8
2017-12-17T01:36:53.582Z,936
2017-12-17T01:37:57.953Z,936
2017-12-17T01:39:05.724Z,935.9
2017-12-17T01:40:10.116Z,936.8
2017-12-17T01:41:13.652Z,936
2017-12-17T01:42:16.999Z,936
2017-12-17T01:43:20.408Z,932.3
2017-12-17T01:44:26.725Z,936
2017-12-17T01:45:30.937Z,935.9
2017-12-17T01:46:34.364Z,936
2017-12-17T01:47:37.754Z,936
2017-12-17T01:48:42.151Z,936.9
2017-12-17T01:49:50.297Z,936
2017-12-17T01:50:53.757Z,936.1
2017-12-17T01:51:57.139Z,936
2017-12-17T01:53:00.525Z,936
2017-12-17T01:54:04.222Z,936
2017-12-17T01:55:07.572Z,936
2017-12-17T01:56:11.041Z,936
2017-12-17T01:57:14.412Z,936
2017-12-17T01:58:20.785Z,936
2017-12-17T01:59:24.362Z,936
2017-12-17T02:00:31.054Z,936
2017-12-17T02:01:35.266Z,935.9
2017-12-17T02:02:38.735Z,936
2017-12-17T02:03:42.130Z,936
2017-12-17T02:04:46.286Z,936
2017-12-17T02:05:49.791Z,936
2017-12-17T02:06:53.333Z,936.1
2017-12-17T02:07:56.724Z,936.1
2017-12-17T02:09:00.673Z,936.1
2017-12-17T02:10:04.220Z,936.2
2017-12-17T02:11:11.211Z,936.2
2017-12-17T02:12:14.568Z,936.1
2017-12-17T02:13:18.064Z,937
2017-12-17T02:14:22.027Z,936.2
2017-12-17T02:15:25.742Z,936.2
2017-12-17T02:16:30.487Z,935.9
2017-12-17T02:17:34.020Z,936.1
2017-12-17T02:18:37.442Z,936.1
2017-12-17T02:19:40.890Z,936.2
2017-12-17T02:20:44.518Z,936.1
2017-12-17T02:21:51.532Z,936.2
2017-12-17T02:22:55.488Z,936.1
2017-12-17T02:23:59.169Z,936.1
2017-12-17T02:25:02.640Z,937.1
2017-12-17T02:26:06.077Z,936.1
2017-12-17T02:27:09.459Z,936.1
2017-12-17T02:28:12.950Z,937
2017-12-17T02:29:16.375Z,936.1
2017-12-17T02:30:19.738Z,936.2
2017-12-17T02:31:23.115Z,936.2
2017-12-17T02:32:30.209Z,937
2017-12-17T02:33:34.350Z,937.1
2017-12-17T02:34:38.577Z,936.2
2017-12-17T02:35:41.881Z,936.2
2017-12-17T02:36:45.367Z,937
2017-12-17T02:37:48.714Z,936.2
2017-12-17T02:38:52.049Z,936.2
2017-12-17T02:39:55.510Z,936.2
2017-12-17T02:40:58.940Z,936.2
2017-12-17T02:42:03.234Z,936.2
2017-12-17T02:43:10.959Z,937.1
2017-12-17T02:44:14.408Z,936.1
2017-12-17T02:45:17.931Z,937
2017-12-17T02:46:21.329Z,937.1
2017-12-17T02:47:25.001Z,937
2017-12-17T02:48:28.478Z,936.2
2017-12-17T02:49:32.079Z,936.1
2017-12-17T02:50:35.676Z,932
2017-12-17T02:51:40.004Z,936.3
2017-12-17T02:52:43.666Z,936.2
2017-12-17T02:53:51.229Z,936.2
2017-12-17T02:54:55.259Z,936.3
2017-12-17T02:55:58.610Z,936.2
2017-12-17T02:57:01.878Z,936.3
2017-12-17T02:58:05.415Z,936.2
2017-12-17T02:59:08.730Z,936.2
2017-12-17T03:00:12.020Z,936.3
2017-12-17T03:01:15.917Z,936.3
2017-12-17T03:02:19.280Z,936.3
2017-12-17T03:03:23.563Z,936.3
2017-12-17T03:04:29.593Z,936.3
2017-12-17T03:05:33.067Z,936.4
2017-12-17T03:06:38.066Z,936.3
2017-12-17T03:07:41.988Z,937.2
2017-12-17T03:08:45.440Z,936.4
2017-12-17T03:09:48.880Z,936.4
2017-12-17T03:10:52.283Z,936.4
2017-12-17T03:11:55.950Z,937.3
2017-12-17T03:13:00.099Z,936.5
2017-12-17T03:14:03.585Z,936.5
2017-12-17T03:15:11.484Z,936.5
2017-12-17T03:16:14.845Z,936.5
2017-12-17T03:17:18.150Z,936.5
2017-12-17T03:18:21.568Z,937.3
2017-12-17T03:19:25.268Z,936.7
2017-12-17T03:20:28.673Z,936.5
2017-12-17T03:21:32.130Z,936.5
2017-12-17T03:22:35.681Z,936.5
2017-12-17T03:23:39.090Z,932.9
2017-12-17T03:24:42.533Z,936.5
2017-12-17T03:25:49.657Z,936.5
2017-12-17T03:26:53.192Z,936.5
2017-12-17T03:27:56.579Z,936.6
2017-12-17T03:28:59.881Z,937.4
2017-12-17T03:30:03.174Z,937.4
2017-12-17T03:31:06.602Z,936.6
2017-12-17T03:32:09.988Z,936.5
2017-12-17T03:33:13.255Z,936.5
2017-12-17T03:34:16.771Z,936.6
2017-12-17T03:35:20.306Z,937.4
2017-12-17T03:36:27.433Z,936.6
2017-12-17T03:37:30.870Z,936.6
2017-12-17T03:38:34.301Z,936.7
2017-12-17T03:39:37.770Z,937.5
2017-12-17T03:40:41.197Z,936.6
2017-12-17T03:41:44.545Z,936.7
2017-12-17T03:42:48.012Z,936.7
2017-12-17T03:43:51.449Z,936.7
2017-12-17T03:44:54.795Z,936.6
2017-12-17T03:45:58.460Z,936.7
2017-12-17T03:47:05.236Z,937
2017-12-17T03:48:08.581Z,936.7
2017-12-17T03:49:12.601Z,936.7
2017-12-17T03:50:16.093Z,936.7
2017-12-17T03:51:19.802Z,936.8
2017-12-17T03:52:22.867Z,936.7
2017-12-17T03:53:29.837Z,937.5
2017-12-17T03:54:33.044Z,936.6
2017-12-17T03:55:37.364Z,937.5
2017-12-17T03:56:40.813Z,936.6
2017-12-17T03:57:47.910Z,936.6
2017-12-17T03:58:51.263Z,936.6
2017-12-17T03:59:54.419Z,936.6
2017-12-17T04:00:57.828Z,936.5
2017-12-17T04:02:01.321Z,936.6
2017-12-17T04:03:04.700Z,936.7
2017-12-17T04:04:08.159Z,936.6
2017-12-17T04:05:11.636Z,936.6
2017-12-17T04:06:15.185Z,936.6
2017-12-17T04:07:18.698Z,936.7
2017-12-17T04:08:25.527Z,937.5
2017-12-17T04:09:29.003Z,936.7
2017-12-17T04:10:33.202Z,936.7
2017-12-17T04:11:36.459Z,937.5
2017-12-17T04:12:39.866Z,936.7
2017-12-17T04:13:43.372Z,936.7
2017-12-17T04:14:46.931Z,936.8
2017-12-17T04:15:50.378Z,936.7
2017-12-17T04:16:53.966Z,936.7
2017-12-17T04:17:57.558Z,936.8
2017-12-17T04:19:04.533Z,936.8
2017-12-17T04:20:07.721Z,936.7
2017-12-17T04:21:10.989Z,936.7
2017-12-17T04:22:14.896Z,936.8
2017-12-17T04:23:18.865Z,936.7
2017-12-17T04:24:22.326Z,936.8
2017-12-17T04:25:26.547Z,936.8
2017-12-17T04:26:29.846Z,936.7
2017-12-17T04:27:33.352Z,937.6
2017-12-17T04:28:37.142Z,937.7
2017-12-17T04:29:45.260Z,936.8
2017-12-17T04:30:48.696Z,936.8
2017-12-17T04:31:51.985Z,936.8
2017-12-17T04:32:55.465Z,936.8
2017-12-17T04:33:59.833Z,936.8
2017-12-17T04:35:03.452Z,937.1
2017-12-17T04:36:06.744Z,936.9
2017-12-17T04:37:10.297Z,936.8
2017-12-17T04:38:13.769Z,936.8
2017-12-17T04:39:17.881Z,936.9
2017-12-17T04:40:25.676Z,936.9
2017-12-17T04:41:28.996Z,937
2017-12-17T04:42:32.332Z,937
2017-12-17T04:43:36.053Z,936.9
2017-12-17T04:44:39.571Z,937.8
2017-12-17T04:45:42.692Z,937
2017-12-17T04:46:46.174Z,937
2017-12-17T04:47:49.358Z,937
2017-12-17T04:48:53.125Z,937.8
2017-12-17T04:49:56.686Z,937
2017-12-17T04:51:04.233Z,936.9
2017-12-17T04:52:07.611Z,937
2017-12-17T04:53:10.841Z,937
2017-12-17T04:54:14.104Z,937
2017-12-17T04:55:17.478Z,936.9
2017-12-17T04:56:20.862Z,937
2017-12-17T04:57:24.920Z,936.9
2017-12-17T04:58:28.936Z,936.9
2017-12-17T04:59:32.090Z,937
2017-12-17T05:00:36.526Z,936.9
2017-12-17T05:01:44.073Z,937
2017-12-17T05:02:47.751Z,937
2017-12-17T05:03:51.057Z,936.9
2017-12-17T05:04:56.297Z,936.9
2017-12-17T05:06:00.135Z,937
2017-12-17T05:07:03.528Z,937
2017-12-17T05:08:07.018Z,937
2017-12-17T05:09:10.785Z,937.8
2017-12-17T05:10:14.481Z,937
2017-12-17T05:11:18.120Z,937
2017-12-17T05:12:24.846Z,937
2017-12-17T05:13:28.193Z,937.9
2017-12-17T05:14:34.477Z,937.9
2017-12-17T05:15:37.567Z,937
2017-12-17T05:16:41.675Z,937.1
2017-12-17T05:17:44.898Z,937.1
2017-12-17T05:18:48.331Z,937.1
2017-12-17T05:19:53.780Z,937.1
2017-12-17T05:20:57.289Z,937
2017-12-17T05:22:00.679Z,937
2017-12-17T05:23:07.325Z,937.1
2017-12-17T05:24:10.640Z,937
2017-12-17T05:25:14.932Z,937
2017-12-17T05:26:19.910Z,937.2
2017-12-17T05:27:23.539Z,937.1
2017-12-17T05:28:26.747Z,937
2017-12-17T05:29:30.191Z,937.1
2017-12-17T05:30:34.130Z,937.1
2017-12-17T05:31:38.104Z,937.2
2017-12-17T05:32:43.230Z,937.2
2017-12-17T05:33:50.105Z,937.1
2017-12-17T05:34:53.574Z,937.2
2017-12-17T05:35:57.518Z,937.2
2017-12-17T05:37:00.840Z,937.2
2017-12-17T05:38:04.889Z,937.2
2017-12-17T05:39:08.316Z,937.2
2017-12-17T05:40:13.709Z,937.4
2017-12-17T05:41:18.016Z,937.1
2017-12-17T05:42:21.900Z,937.1
2017-12-17T05:43:26.381Z,938
2017-12-17T05:44:34.342Z,937.2
2017-12-17T05:45:38.995Z,937.2
2017-12-17T05:46:43.439Z,938.1
2017-12-17T05:47:46.748Z,938
2017-12-17T05:48:51.279Z,937.2
2017-12-17T05:49:55.315Z,937.2
2017-12-17T05:50:58.734Z,937.3
2017-12-17T05:52:02.871Z,937.3
2017-12-17T05:53:07.251Z,938.2
2017-12-17T05:54:10.557Z,937.3
2017-12-17T05:55:17.503Z,937.3
2017-12-17T05:56:20.864Z,937.4
2017-12-17T05:57:24.224Z,937.4
2017-12-17T05:58:28.827Z,937.3
2017-12-17T05:59:33.398Z,937.4
2017-12-17T06:00:36.858Z,937.4
2017-12-17T06:01:40.319Z,937.5
2017-12-17T06:02:44.611Z,937.5
2017-12-17T06:03:48.014Z,937.5
2017-12-17T06:04:51.654Z,937.5
2017-12-17T06:05:58.319Z,937.5
2017-12-17T06:07:01.713Z,938.3
2017-12-17T06:08:05.130Z,937.5
2017-12-17T06:09:08.535Z,937.5
2017-12-17T06:10:13.054Z,937.5
2017-12-17T06:11:16.933Z,937.5
2017-12-17T06:12:22.644Z,937.5
2017-12-17T06:13:25.986Z,937.5
2017-12-17T06:14:29.436Z,937.5
2017-12-17T06:15:33.399Z,937.5
2017-12-17T06:16:42.056Z,937.6
2017-12-17T06:17:46.854Z,937.5
2017-12-17T06:18:52.141Z,938.4
2017-12-17T06:19:56.203Z,937.6
2017-12-17T06:20:59.737Z,937.5
2017-12-17T06:22:04.611Z,937.5
2017-12-17T06:23:08.019Z,937.6
2017-12-17T06:24:11.479Z,937.6
2017-12-17T06:25:16.572Z,937.5
2017-12-17T06:26:19.984Z,937.6
2017-12-17T06:27:26.134Z,937.6
2017-12-17T06:28:29.492Z,937.7
2017-12-17T06:29:33.383Z,938.6
2017-12-17T06:30:36.623Z,937.6
2017-12-17T06:31:44.280Z,937.7
2017-12-17T06:32:47.593Z,937.6
2017-12-17T06:33:50.886Z,937.7
2017-12-17T06:34:54.815Z,937.7
2017-12-17T06:35:58.294Z,937.7
2017-12-17T06:37:01.936Z,937.7
2017-12-17T06:38:11.751Z,937.7
2017-12-17T06:39:15.118Z,937.7
2017-12-17T06:40:18.301Z,937.6
2017-12-17T06:41:21.800Z,937.6
2017-12-17T06:42:24.909Z,937.6
2017-12-17T06:43:28.389Z,937.6
2017-12-17T06:44:31.964Z,937.7
2017-12-17T06:45:35.574Z,937.7
2017-12-17T06:46:38.831Z,937.7
2017-12-17T06:47:44.812Z,937.7
2017-12-17T06:48:54.096Z,938
2017-12-17T06:49:57.350Z,937.8
2017-12-17T06:51:01.597Z,937.7
2017-12-17T06:52:04.678Z,937.8
2017-12-17T06:53:08.144Z,937.8
2017-12-17T06:54:12.640Z,937.8
2017-12-17T06:55:15.986Z,937.8
2017-12-17T06:56:20.198Z,937.8
2017-12-17T06:57:23.537Z,937.9
2017-12-17T06:58:27.078Z,937.9
2017-12-17T06:59:34.633Z,937.8
2017-12-17T07:00:38.527Z,937.9
2017-12-17T07:01:41.843Z,937.8
2017-12-17T07:02:45.176Z,938.7
2017-12-17T07:03:48.650Z,937.9
2017-12-17T07:04:52.783Z,937.9
2017-12-17T07:05:58.100Z,937.9
2017-12-17T07:07:02.157Z,937.9
2017-12-17T07:08:05.441Z,938
2017-12-17T07:09:10.605Z,937.9
2017-12-17T07:10:18.004Z,937.9
2017-12-17T07:11:23.279Z,938
2017-12-17T07:12:26.512Z,938
2017-12-17T07:13:29.705Z,938
2017-12-17T07:14:33.119Z,938
2017-12-17T07:15:36.305Z,938.9
2017-12-17T07:16:39.878Z,934
2017-12-17T07:17:43.395Z,938.1
2017-12-17T07:18:48.022Z,938.1
2017-12-17T07:19:53.233Z,938.1
2017-12-17T07:21:01.273Z,938.1
2017-12-17T07:22:04.630Z,938
2017-12-17T07:23:07.831Z,938.1
2017-12-17T07:24:11.936Z,938.1
2017-12-17T07:25:16.575Z,938.2
2017-12-17T07:26:19.943Z,938.2
2017-12-17T07:27:23.511Z,938.1
2017-12-17T07:28:26.874Z,939
2017-12-17T07:29:30.160Z,933.9
2017-12-17T07:30:34.275Z,938.3
2017-12-17T07:31:40.911Z,938.3
2017-12-17T07:32:44.869Z,938.3
2017-12-17T07:33:48.164Z,938.3
2017-12-17T07:34:51.408Z,939.1
2017-12-17T07:35:55.148Z,938.3
2017-12-17T07:36:58.644Z,938.3
2017-12-17T07:38:01.819Z,938.3
2017-12-17T07:39:05.627Z,939.1
2017-12-17T07:40:09.045Z,939.2
2017-12-17T07:41:12.302Z,938.3
2017-12-17T07:42:18.779Z,939.2
2017-12-17T07:43:22.897Z,939.2
2017-12-17T07:44:26.826Z,938.3
2017-12-17T07:45:31.083Z,938.4
2017-12-17T07:46:34.318Z,938.4
2017-12-17T07:47:37.716Z,938.4
2017-12-17T07:48:41.103Z,938.4
2017-12-17T07:49:44.549Z,939.3
2017-12-17T07:50:47.948Z,938.4
2017-12-17T07:51:51.497Z,938.4
2017-12-17T07:52:58.937Z,939.4
2017-12-17T07:54:02.242Z,938.5
2017-12-17T07:55:05.707Z,938.5
2017-12-17T07:56:09.017Z,938.5
2017-12-17T07:57:12.507Z,939.4
2017-12-17T07:58:16.389Z,938.6
2017-12-17T07:59:20.412Z,938.6
2017-12-17T08:00:23.746Z,938.6
2017-12-17T08:01:27.092Z,938.6
2017-12-17T08:02:30.855Z,938.5
2017-12-17T08:03:38.023Z,938.6
2017-12-17T08:04:41.474Z,938.6
2017-12-17T08:05:44.983Z,938.6
2017-12-17T08:06:49.898Z,939.6
2017-12-17T08:07:53.267Z,939.5
2017-12-17T08:08:57.280Z,939.4
2017-12-17T08:10:00.526Z,939.4
2017-12-17T08:11:03.980Z,938.6
2017-12-17T08:12:07.265Z,938.6
2017-12-17T08:13:11.199Z,938.7
2017-12-17T08:14:17.401Z,938.6
2017-12-17T08:15:20.909Z,938.6
2017-12-17T08:16:25.020Z,938.6
2017-12-17T08:17:28.423Z,938.6
2017-12-17T08:18:32.156Z,938.6
2017-12-17T08:19:35.621Z,938.6
2017-12-17T08:20:38.730Z,938.9
2017-12-17T08:21:42.379Z,938.7
2017-12-17T08:22:45.792Z,938.8
2017-12-17T08:23:49.131Z,938.6
2017-12-17T08:24:56.025Z,939.5
2017-12-17T08:26:00.025Z,938.7
2017-12-17T08:27:03.543Z,939.6
2017-12-17T08:28:06.839Z,939
2017-12-17T08:29:10.685Z,938.7
2017-12-17T08:30:14.038Z,939.6
2017-12-17T08:31:17.441Z,938.8
2017-12-17T08:32:20.825Z,934.9
2017-12-17T08:33:24.952Z,938.8
2017-12-17T08:34:28.478Z,938.9
2017-12-17T08:35:36.471Z,938.9
2017-12-17T08:36:39.859Z,938.9
2017-12-17T08:37:43.116Z,939
2017-12-17T08:38:46.487Z,939
2017-12-17T08:39:49.718Z,939
2017-12-17T08:40:53.097Z,939
2017-12-17T08:41:56.634Z,939
2017-12-17T08:43:03.628Z,939
2017-12-17T08:44:07.610Z,939.1
2017-12-17T08:45:11.094Z,939
2017-12-17T08:46:18.661Z,939.1
2017-12-17T08:47:22.169Z,940.1
2017-12-17T08:48:25.783Z,939.2
2017-12-17T08:49:32.400Z,939.2
2017-12-17T08:50:35.994Z,939.2
2017-12-17T08:51:39.420Z,939.1
2017-12-17T08:52:46.564Z,939.2
2017-12-17T08:53:50.025Z,939.2
2017-12-17T08:54:53.425Z,939.3
2017-12-17T08:55:56.697Z,939.2
2017-12-17T08:57:03.500Z,939.3
2017-12-17T08:58:06.928Z,939.3
2017-12-17T08:59:13.284Z,939.3
2017-12-17T09:00:16.446Z,940.2
2017-12-17T09:01:19.810Z,939.3
2017-12-17T09:02:24.017Z,939.3
2017-12-17T09:03:27.200Z,939.3
2017-12-17T09:04:30.721Z,939.3
2017-12-17T09:05:34.668Z,940.2
2017-12-17T09:06:38.203Z,940.2
2017-12-17T09:07:49.633Z,940.2
2017-12-17T09:08:55.151Z,939.3
2017-12-17T09:09:59.349Z,940.3
2017-12-17T09:11:09.532Z,939.3
2017-12-17T09:12:18.077Z,939.3
2017-12-17T09:13:21.523Z,939.4
2017-12-17T09:14:27.271Z,939.5
2017-12-17T09:15:33.778Z,939.8
2017-12-17T09:16:37.175Z,939.5
2017-12-17T09:17:41.866Z,939.4
2017-12-17T09:18:56.105Z,939.4
2017-12-17T09:20:00.744Z,939.4
2017-12-17T09:21:04.254Z,939.5
2017-12-17T09:22:10.928Z,939.5
2017-12-17T09:23:17.013Z,939.5
2017-12-17T09:24:20.592Z,940.3
2017-12-17T09:25:24.045Z,939.5
2017-12-17T09:26:29.010Z,939.5
2017-12-17T09:27:34.112Z,939.5
2017-12-17T09:28:39.823Z,940.4
2017-12-17T09:29:48.127Z,939.7
2017-12-17T09:30:51.670Z,939.5
2017-12-17T09:31:55.036Z,939.6
2017-12-17T09:32:58.370Z,939.7
2017-12-17T09:34:02.603Z,939.6
2017-12-17T09:35:06.515Z,939.6
2017-12-17T09:36:09.910Z,939.7
2017-12-17T09:37:13.446Z,939.7
2017-12-17T09:38:17.024Z,939.7
2017-12-17T09:39:20.532Z,939.7
2017-12-17T09:40:28.666Z,939.7
2017-12-17T09:41:33.352Z,939.6
2017-12-17T09:42:36.787Z,940.5
2017-12-17T09:43:40.975Z,939.6
2017-12-17T09:44:45.606Z,939.7
2017-12-17T09:45:49.149Z,939.7
2017-12-17T09:46:53.503Z,939.7
2017-12-17T09:47:58.824Z,939.8
2017-12-17T09:49:02.293Z,939.7
2017-12-17T09:50:06.515Z,939.7
2017-12-17T09:51:15.372Z,939.7
2017-12-17T09:52:18.914Z,939.7
2017-12-17T09:53:22.344Z,939.7
2017-12-17T09:54:26.760Z,940.5
2017-12-17T09:55:50.736Z,939.7
2017-12-17T09:56:56.918Z,939.7
2017-12-17T09:58:03.048Z,939.8
2017-12-17T09:59:12.048Z,939.8
2017-12-17T10:00:21.324Z,940.1
2017-12-17T10:01:35.380Z,939.8
2017-12-17T10:02:47.569Z,939.7
2017-12-17T10:03:52.875Z,940.7
2017-12-17T10:04:59.924Z,940.6
2017-12-17T10:06:03.348Z,939.8
2017-12-17T10:07:17.227Z,939.8
2017-12-17T10:08:22.717Z,939.8
2017-12-17T10:09:37.953Z,939.8
2017-12-17T10:10:42.033Z,939.8
2017-12-17T10:11:45.604Z,939.8
2017-12-17T10:13:00.748Z,940.7
2017-12-17T10:14:14.770Z,940.7
2017-12-17T10:15:31.856Z,939.8
2017-12-17T10:16:35.258Z,939.9
2017-12-17T10:17:38.657Z,939.8
2017-12-17T10:18:43.643Z,939.8
2017-12-17T10:19:47.732Z,939.8
2017-12-17T10:20:52.375Z,939.8
2017-12-17T10:21:55.897Z,939.9
2017-12-17T10:23:02.135Z,939.7
2017-12-17T10:24:05.611Z,939.8
2017-12-17T10:25:13.222Z,936.1
2017-12-17T10:26:19.303Z,939.8
2017-12-17T10:27:23.851Z,939.8
2017-12-17T10:28:27.265Z,939.8
2017-12-17T10:29:32.224Z,940.6
2017-12-17T10:30:36.137Z,939.8
2017-12-17T10:31:40.258Z,939.8
2017-12-17T10:32:44.482Z,940.6
2017-12-17T10:33:48.004Z,940.6
2017-12-17T10:34:51.521Z,940.4
2017-12-17T10:36:00.006Z,940.1
2017-12-17T10:37:04.350Z,939.8
2017-12-17T10:38:08.097Z,939.8
2017-12-17T10:39:12.080Z,939.8
2017-12-17T10:40:15.488Z,939.8
2017-12-17T10:41:20.771Z,939.8
2017-12-17T10:42:24.276Z,939.8
2017-12-17T10:43:27.929Z,939.8
2017-12-17T10:44:31.483Z,940.6
2017-12-17T10:45:35.969Z,939.7
2017-12-17T10:46:43.668Z,939.8
2017-12-17T10:47:48.200Z,940.7
2017-12-17T10:48:52.411Z,939.7
2017-12-17T10:49:55.902Z,939.9
2017-12-17T10:51:00.502Z,940.7
2017-12-17T10:52:04.718Z,939.8
2017-12-17T10:53:08.269Z,939.9
2017-12-17T10:54:12.935Z,939.9
2017-12-17T10:55:16.452Z,940.7
2017-12-17T10:56:19.882Z,939.9
2017-12-17T10:57:27.139Z,940.6
2017-12-17T10:58:30.666Z,939.8
2017-12-17T10:59:35.322Z,939.9
2017-12-17T11:00:38.927Z,939.9
2017-12-17T11:01:43.279Z,940.7
2017-12-17T11:02:47.328Z,940.7
2017-12-17T11:03:51.510Z,939.9
2017-12-17T11:04:55.938Z,939.8
2017-12-17T11:05:59.442Z,939.9
2017-12-17T11:07:04.018Z,939.8
2017-12-17T11:08:10.881Z,939.8
2017-12-17T11:09:14.272Z,939.8
2017-12-17T11:10:17.961Z,935.6
2017-12-17T11:11:21.351Z,939.8
2017-12-17T11:12:25.407Z,939.9
2017-12-17T11:13:28.890Z,939.8
2017-12-17T11:14:33.244Z,939.8
2017-12-17T11:15:37.507Z,939.8
2017-12-17T11:16:40.845Z,939.8
2017-12-17T11:17:44.543Z,940.7
2017-12-17T11:18:53.545Z,939.8
2017-12-17T11:19:57.032Z,939.8
2017-12-17T11:21:01.711Z,940.7
2017-12-17T11:22:05.277Z,939.9
2017-12-17T11:23:08.628Z,939.8
2017-12-17T11:24:12.118Z,935.5
2017-12-17T11:25:15.519Z,940.7
2017-12-17T11:26:18.938Z,939.9
2017-12-17T11:27:22.396Z,940.8
2017-12-17T11:28:26.418Z,939.9
2017-12-17T11:29:33.411Z,940.8
2017-12-17T11:30:36.783Z,940.8
2017-12-17T11:31:40.475Z,940
2017-12-17T11:32:43.965Z,940
2017-12-17T11:33:48.141Z,939.9
2017-12-17T11:34:52.341Z,939.8
2017-12-17T11:35:55.884Z,939.9
2017-12-17T11:37:00.077Z,939.4
2017-12-17T11:38:03.584Z,939.9
2017-12-17T11:39:07.064Z,940.7
2017-12-17T11:40:14.237Z,939.9
2017-12-17T11:41:18.025Z,940.8
2017-12-17T11:42:21.512Z,940.8
2017-12-17T11:43:24.913Z,940.8
2017-12-17T11:44:28.525Z,939.8
2017-12-17T11:45:32.490Z,936
2017-12-17T11:46:35.930Z,939.9
2017-12-17T11:47:40.055Z,940
2017-12-17T11:48:43.426Z,935.5
2017-12-17T11:49:46.984Z,939.8
2017-12-17T11:50:55.414Z,939.9
2017-12-17T11:51:58.889Z,940.8
2017-12-17T11:53:03.157Z,939.9
2017-12-17T11:54:06.591Z,940.9
2017-12-17T11:55:10.094Z,940
2017-12-17T11:56:13.515Z,935.5
2017-12-17T11:57:16.881Z,940.7
2017-12-17T11:58:20.268Z,939.9
2017-12-17T11:59:24.371Z,940
2017-12-17T12:00:28.151Z,939.8
2017-12-17T12:01:35.343Z,940.7
2017-12-17T12:02:38.930Z,939.9
2017-12-17T12:03:42.278Z,940
2017-12-17T12:04:45.605Z,940.8
2017-12-17T12:05:49.597Z,940
2017-12-17T12:06:53.620Z,940
2017-12-17T12:07:57.053Z,939.9
2017-12-17T12:09:00.612Z,939.9
2017-12-17T12:10:04.351Z,940
2017-12-17T12:11:07.822Z,940.8
2017-12-17T12:12:15.617Z,939.9
2017-12-17T12:13:19.894Z,939.9
2017-12-17T12:14:23.352Z,939.9
2017-12-17T12:15:26.600Z,939.9
2017-12-17T12:16:32.012Z,940
2017-12-17T12:17:35.397Z,940.3
2017-12-17T12:18:38.846Z,940
2017-12-17T12:19:42.278Z,940.7
2017-12-17T12:20:46.361Z,939.9
2017-12-17T12:21:49.834Z,939.9
2017-12-17T12:22:57.439Z,939.9
2017-12-17T12:24:01.416Z,939.9
2017-12-17T12:25:04.854Z,940.7
2017-12-17T12:26:09.271Z,939.9
2017-12-17T12:27:12.848Z,940
2017-12-17T12:28:16.960Z,939.9
2017-12-17T12:29:20.627Z,939.9
2017-12-17T12:30:25.993Z,939.8
2017-12-17T12:31:29.650Z,936.1
2017-12-17T12:32:33.211Z,939.9
2017-12-17T12:33:40.766Z,939.9
2017-12-17T12:34:44.246Z,939.8
2017-12-17T12:35:47.603Z,940.6
2017-12-17T12:36:51.164Z,939.9
2017-12-17T12:37:54.829Z,939.9
2017-12-17T12:38:58.852Z,939.9
2017-12-17T12:40:02.228Z,940
2017-12-17T12:41:05.600Z,939.9
2017-12-17T12:42:10.714Z,939.9
2017-12-17T12:43:14.159Z,939.9
2017-12-17T12:44:21.253Z,939.9
2017-12-17T12:45:24.756Z,940
2017-12-17T12:46:28.434Z,940
2017-12-17T12:47:31.848Z,939.9
2017-12-17T12:48:35.256Z,939.9
2017-12-17T12:49:38.764Z,939.8
2017-12-17T12:50:42.017Z,939.9
2017-12-17T12:51:45.444Z,946.9
2017-12-17T12:52:48.958Z,939.9
2017-12-17T12:53:52.431Z,940
2017-12-17T12:55:00.830Z,940
2017-12-17T12:56:05.062Z,940.9
2017-12-17T12:57:08.477Z,940
2017-12-17T12:58:11.976Z,940
2017-12-17T12:59:15.350Z,941
2017-12-17T13:00:18.738Z,940.1
2017-12-17T13:01:22.042Z,940.1
2017-12-17T13:02:26.854Z,940
2017-12-17T13:03:30.468Z,940.1
2017-12-17T13:04:33.943Z,940
2017-12-17T13:05:40.727Z,940.1
2017-12-17T13:06:45.282Z,940
2017-12-17T13:07:48.805Z,940.1
2017-12-17T13:08:53.398Z,940.1
2017-12-17T13:09:58.563Z,940.1
2017-12-17T13:11:01.995Z,940.3
2017-12-17T13:12:06.747Z,940.1
2017-12-17T13:13:10.432Z,940
2017-12-17T13:14:14.096Z,940.9
2017-12-17T13:15:17.643Z,940
2017-12-17T13:16:25.032Z,940.1
2017-12-17T13:17:29.103Z,940.2
2017-12-17T13:18:32.560Z,940.1
2017-12-17T13:19:36.107Z,940.1
2017-12-17T13:20:40.157Z,940.2
2017-12-17T13:21:43.557Z,940.1
2017-12-17T13:22:47.091Z,940.2
2017-12-17T13:23:50.785Z,940.2
2017-12-17T13:24:55.746Z,940.1
2017-12-17T13:26:00.566Z,940.2
2017-12-17T13:27:07.455Z,940.2
2017-12-17T13:28:11.702Z,940.2
2017-12-17T13:29:15.214Z,940.2
2017-12-17T13:30:19.708Z,940.3
2017-12-17T13:31:23.155Z,941
2017-12-17T13:32:26.523Z,940.3
2017-12-17T13:33:30.030Z,941.1
2017-12-17T13:34:33.471Z,940.2
2017-12-17T13:35:36.737Z,940.3
2017-12-17T13:36:40.810Z,940.3
2017-12-17T13:37:47.813Z,940.3
2017-12-17T13:38:50.869Z,940.3
2017-12-17T13:39:54.650Z,941.2
2017-12-17T13:40:58.156Z,940.4
2017-12-17T13:42:01.607Z,940.4
2017-12-17T13:43:05.139Z,940.4
2017-12-17T13:44:08.768Z,940.5
2017-12-17T13:45:13.287Z,940.4
2017-12-17T13:46:19.722Z,935.9
2017-12-17T13:47:24.916Z,940.5
2017-12-17T13:48:35.882Z,941.3
2017-12-17T13:49:42.549Z,940.4
2017-12-17T13:50:49.906Z,940.4
2017-12-17T13:51:55.238Z,940.5
2017-12-17T13:53:03.066Z,940.5
2017-12-17T13:54:15.145Z,940.5
2017-12-17T13:55:26.046Z,940.5
2017-12-17T13:56:38.002Z,940.5